sensor_id;sensor_type;location;lat;lon;timestamp;pressure;altitude;pressure_sealevel;temperature;humidity
65280;BME280;51878;55.748;48.742;2023-07-09T00:02:43;98445.84;;;20.44;100.00
65280;BME280;51878;55.748;48.742;2023-07-09T00:07:46;98521.03;;;20.96;100.00
65280;BME280;51878;55.748;48.742;2023-07-09T00:12:48;98439.22;;;20.66;100.00
65280;BME280;51878;55.748;48.742;2023-07-09T00:17:50;98509.13;;;21.16;100.00
65280;BME280;51878;55.748;48.742;2023-07-09T00:22:52;98504.41;;;21.32;100.00
65280;BME280;51878;55.748;48.742;2023-07-09T00:27:55;98499.72;;;21.48;100.00
65280;BME280;51878;55.748;48.742;2023-07-09T00:32:57;98497.97;;;21.62;100.00
65280;BME280;51878;55.748;48.742;2023-07-09T00:37:59;98459.69;;;21.50;100.00
65280;BME280;51878;55.748;48.742;2023-07-09T00:43:02;98407.88;;;21.32;100.00
65280;BME280;51878;55.748;48.742;2023-07-09T00:48:06;98469.06;;;21.54;100.00
65280;BME280;51878;55.748;48.742;2023-07-09T00:53:23;98461.13;;;21.32;100.00
65280;BME280;51878;55.748;48.742;2023-07-09T00:58:28;98445.50;;;20.92;100.00
65280;BME280;51878;55.748;48.742;2023-07-09T01:03:43;98425.44;;;20.76;100.00
65280;BME280;51878;55.748;48.742;2023-07-09T01:08:47;98452.69;;;20.93;100.00
65280;BME280;51878;55.748;48.742;2023-07-09T01:13:58;98455.69;;;20.96;100.00
65280;BME280;51878;55.748;48.742;2023-07-09T01:19:06;98438.94;;;20.82;100.00
65280;BME280;51878;55.748;48.742;2023-07-09T01:24:14;98424.91;;;20.74;100.00
65280;BME280;51878;55.748;48.742;2023-07-09T01:29:17;98466.72;;;20.96;100.00
65280;BME280;51878;55.748;48.742;2023-07-09T01:34:19;98455.44;;;20.93;100.00
65280;BME280;51878;55.748;48.742;2023-07-09T01:39:25;98459.81;;;21.09;100.00
65280;BME280;51878;55.748;48.742;2023-07-09T01:44:28;98468.03;;;21.24;100.00
65280;BME280;51878;55.748;48.742;2023-07-09T01:49:31;98454.75;;;21.37;100.00
65280;BME280;51878;55.748;48.742;2023-07-09T01:54:34;98402.69;;;21.20;100.00
65280;BME280;51878;55.748;48.742;2023-07-09T01:59:39;98437.91;;;21.49;100.00
65280;BME280;51878;55.748;48.742;2023-07-09T02:04:43;98426.56;;;21.55;100.00
65280;BME280;51878;55.748;48.742;2023-07-09T02:09:46;98377.00;;;21.30;100.00
65280;BME280;51878;55.748;48.742;2023-07-09T02:14:48;98398.19;;;21.50;100.00
65280;BME280;51878;55.748;48.742;2023-07-09T02:19:51;98391.50;;;21.56;100.00
65280;BME280;51878;55.748;48.742;2023-07-09T02:24:53;98392.28;;;21.72;100.00
65280;BME280;51878;55.748;48.742;2023-07-09T02:29:55;98420.47;;;22.03;100.00
65280;BME280;51878;55.748;48.742;2023-07-09T02:34:57;98373.94;;;21.86;100.00
65280;BME280;51878;55.748;48.742;2023-07-09T02:40:00;98392.22;;;22.16;100.00
65280;BME280;51878;55.748;48.742;2023-07-09T02:45:05;98422.25;;;22.57;100.00
65280;BME280;51878;55.748;48.742;2023-07-09T02:50:08;98365.16;;;22.47;100.00
65280;BME280;51878;55.748;48.742;2023-07-09T02:55:10;98390.84;;;23.01;100.00
65280;BME280;51878;55.748;48.742;2023-07-09T03:00:13;98415.13;;;23.52;98.22
65280;BME280;51878;55.748;48.742;2023-07-09T03:05:15;98396.53;;;23.77;94.81
65280;BME280;51878;55.748;48.742;2023-07-09T03:10:17;98362.72;;;23.80;92.36
65280;BME280;51878;55.748;48.742;2023-07-09T03:15:20;98422.94;;;24.40;89.74
65280;BME280;51878;55.748;48.742;2023-07-09T03:20:23;98415.13;;;24.61;89.25
65280;BME280;51878;55.748;48.742;2023-07-09T03:25:25;98402.50;;;24.69;84.85
65280;BME280;51878;55.748;48.742;2023-07-09T03:30:28;98508.19;;;24.67;97.74
65280;BME280;51878;55.748;48.742;2023-07-09T03:35:30;98442.47;;;23.97;100.00
65280;BME280;51878;55.748;48.742;2023-07-09T03:40:33;98465.13;;;23.80;100.00
65280;BME280;51878;55.748;48.742;2023-07-09T03:45:36;98452.44;;;23.74;100.00
65280;BME280;51878;55.748;48.742;2023-07-09T03:50:39;98480.75;;;23.71;100.00
65280;BME280;51878;55.748;48.742;2023-07-09T03:55:41;98486.78;;;24.16;100.00
65280;BME280;51878;55.748;48.742;2023-07-09T04:00:44;98522.25;;;24.14;100.00
65280;BME280;51878;55.748;48.742;2023-07-09T04:05:47;98505.06;;;24.17;100.00
65280;BME280;51878;55.748;48.742;2023-07-09T04:10:49;98492.84;;;24.18;100.00
65280;BME280;51878;55.748;48.742;2023-07-09T04:15:51;98442.63;;;24.06;99.72
65280;BME280;51878;55.748;48.742;2023-07-09T04:20:54;98466.56;;;24.34;98.40
65280;BME280;51878;55.748;48.742;2023-07-09T04:25:56;98483.69;;;24.56;97.20
65280;BME280;51878;55.748;48.742;2023-07-09T04:30:59;98507.34;;;24.67;94.74
65280;BME280;51878;55.748;48.742;2023-07-09T04:36:01;98399.91;;;23.93;95.45
65280;BME280;51878;55.748;48.742;2023-07-09T04:41:04;98510.59;;;24.55;96.47
65280;BME280;51878;55.748;48.742;2023-07-09T04:46:06;98448.47;;;24.23;97.03
65280;BME280;51878;55.748;48.742;2023-07-09T04:51:08;98484.66;;;24.46;96.86
65280;BME280;51878;55.748;48.742;2023-07-09T04:56:11;98479.06;;;24.32;97.64
65280;BME280;51878;55.748;48.742;2023-07-09T05:01:13;98451.28;;;24.18;95.82
65280;BME280;51878;55.748;48.742;2023-07-09T05:06:16;98455.06;;;24.08;96.90
65280;BME280;51878;55.748;48.742;2023-07-09T05:11:18;98484.09;;;24.30;96.16
65280;BME280;51878;55.748;48.742;2023-07-09T05:16:20;98454.38;;;24.17;95.65
65280;BME280;51878;55.748;48.742;2023-07-09T05:21:23;98472.69;;;24.50;94.77
65280;BME280;51878;55.748;48.742;2023-07-09T05:26:25;98481.16;;;24.59;91.84
65280;BME280;51878;55.748;48.742;2023-07-09T05:31:27;98469.78;;;24.61;91.48
65280;BME280;51878;55.748;48.742;2023-07-09T05:36:30;98489.72;;;24.77;91.09
65280;BME280;51878;55.748;48.742;2023-07-09T05:41:32;98513.09;;;25.03;89.68
65280;BME280;51878;55.748;48.742;2023-07-09T05:46:35;98519.75;;;25.35;87.75
65280;BME280;51878;55.748;48.742;2023-07-09T05:51:38;98494.78;;;25.63;85.93
65280;BME280;51878;55.748;48.742;2023-07-09T05:56:40;98485.69;;;25.85;83.83
65280;BME280;51878;55.748;48.742;2023-07-09T06:01:43;98453.19;;;25.85;83.12
65280;BME280;51878;55.748;48.742;2023-07-09T06:06:45;98472.19;;;26.06;81.65
65280;BME280;51878;55.748;48.742;2023-07-09T06:11:47;98442.91;;;26.00;79.65
65280;BME280;51878;55.748;48.742;2023-07-09T06:16:49;98459.66;;;26.31;78.88
65280;BME280;51878;55.748;48.742;2023-07-09T06:21:53;98412.22;;;26.27;77.19
65280;BME280;51878;55.748;48.742;2023-07-09T06:26:59;98416.13;;;26.49;75.67
65280;BME280;51878;55.748;48.742;2023-07-09T06:32:01;98450.19;;;26.77;74.63
65280;BME280;51878;55.748;48.742;2023-07-09T06:37:04;98394.38;;;26.51;73.74
65280;BME280;51878;55.748;48.742;2023-07-09T06:42:08;98332.41;;;25.96;73.27
65280;BME280;51878;55.748;48.742;2023-07-09T06:47:11;98443.31;;;26.74;72.75
65280;BME280;51878;55.748;48.742;2023-07-09T06:52:13;98446.41;;;27.04;72.20
65280;BME280;51878;55.748;48.742;2023-07-09T06:57:15;98465.47;;;27.19;72.60
65280;BME280;51878;55.748;48.742;2023-07-09T07:02:19;98472.16;;;27.18;71.79
65280;BME280;51878;55.748;48.742;2023-07-09T07:07:35;98469.72;;;27.17;70.36
65280;BME280;51878;55.748;48.742;2023-07-09T07:12:46;98443.94;;;27.03;69.01
65280;BME280;51878;55.748;48.742;2023-07-09T07:17:53;98513.06;;;27.32;69.54
65280;BME280;51878;55.748;48.742;2023-07-09T07:22:58;98525.75;;;27.55;69.90
65280;BME280;51878;55.748;48.742;2023-07-09T07:28:00;98505.44;;;27.55;68.34
65280;BME280;51878;55.748;48.742;2023-07-09T07:33:04;98505.94;;;27.57;69.02
65280;BME280;51878;55.748;48.742;2023-07-09T07:38:06;98466.91;;;27.48;68.93
65280;BME280;51878;55.748;48.742;2023-07-09T07:43:14;98484.91;;;27.99;67.61
65280;BME280;51878;55.748;48.742;2023-07-09T07:48:16;98476.75;;;28.29;65.11
65280;BME280;51878;55.748;48.742;2023-07-09T07:53:18;98507.91;;;28.14;66.01
65280;BME280;51878;55.748;48.742;2023-07-09T07:58:20;98458.78;;;27.60;68.31
65280;BME280;51878;55.748;48.742;2023-07-09T08:03:26;98463.50;;;27.20;70.68
65280;BME280;51878;55.748;48.742;2023-07-09T08:08:28;98499.94;;;27.01;72.58
65280;BME280;51878;55.748;48.742;2023-07-09T08:13:32;98504.22;;;26.85;75.25
65280;BME280;51878;55.748;48.742;2023-07-09T08:18:36;98501.59;;;26.79;76.81
65280;BME280;51878;55.748;48.742;2023-07-09T08:23:42;98471.66;;;26.85;78.01
65280;BME280;51878;55.748;48.742;2023-07-09T08:28:44;98483.13;;;27.46;76.67
65280;BME280;51878;55.748;48.742;2023-07-09T08:33:46;98422.72;;;27.64;73.72
65280;BME280;51878;55.748;48.742;2023-07-09T08:38:52;98473.13;;;28.55;70.28
65280;BME280;51878;55.748;48.742;2023-07-09T08:49:43;98477.44;;;29.17;63.35
65280;BME280;51878;55.748;48.742;2023-07-09T08:54:49;98436.25;;;29.14;62.12
65280;BME280;51878;55.748;48.742;2023-07-09T09:00:20;98470.06;;;29.59;60.11
65280;BME280;51878;55.748;48.742;2023-07-09T09:05:24;98448.31;;;29.65;58.76
65280;BME280;51878;55.748;48.742;2023-07-09T09:10:54;98462.34;;;29.86;57.11
65280;BME280;51878;55.748;48.742;2023-07-09T09:16:03;98457.72;;;30.11;56.20
65280;BME280;51878;55.748;48.742;2023-07-09T09:21:23;98456.44;;;29.88;55.57
65280;BME280;51878;55.748;48.742;2023-07-09T09:26:31;98443.06;;;29.34;55.97
65280;BME280;51878;55.748;48.742;2023-07-09T09:31:34;98409.44;;;28.66;59.09
65280;BME280;51878;55.748;48.742;2023-07-09T09:36:37;98412.44;;;28.43;60.56
65280;BME280;51878;55.748;48.742;2023-07-09T09:41:39;98395.22;;;28.15;62.99
65280;BME280;51878;55.748;48.742;2023-07-09T09:46:45;98423.75;;;28.47;63.56
65280;BME280;51878;55.748;48.742;2023-07-09T09:51:49;98398.66;;;28.64;61.80
65280;BME280;51878;55.748;48.742;2023-07-09T09:56:53;98426.47;;;29.37;60.93
65280;BME280;51878;55.748;48.742;2023-07-09T10:02:00;98412.09;;;30.19;57.51
65280;BME280;51878;55.748;48.742;2023-07-09T10:07:07;98408.34;;;30.82;53.90
65280;BME280;51878;55.748;48.742;2023-07-09T10:23:02;98410.06;;;31.32;50.24
65280;BME280;51878;55.748;48.742;2023-07-09T10:34:32;98368.19;;;30.53;51.65
65280;BME280;51878;55.748;48.742;2023-07-09T10:39:38;98316.94;;;29.95;52.82
65280;BME280;51878;55.748;48.742;2023-07-09T10:44:48;98345.00;;;29.98;53.28
65280;BME280;51878;55.748;48.742;2023-07-09T10:49:57;98343.78;;;29.87;53.99
65280;BME280;51878;55.748;48.742;2023-07-09T10:55:26;98381.03;;;29.79;54.59
65280;BME280;51878;55.748;48.742;2023-07-09T11:00:36;98356.81;;;29.32;55.81
65280;BME280;51878;55.748;48.742;2023-07-09T11:05:50;98307.16;;;29.08;56.56
65280;BME280;51878;55.748;48.742;2023-07-09T11:10:56;98357.50;;;30.01;55.24
65280;BME280;51878;55.748;48.742;2023-07-09T11:16:04;98353.63;;;30.60;53.48
65280;BME280;51878;55.748;48.742;2023-07-09T11:21:16;98351.97;;;31.29;50.34
65280;BME280;51878;55.748;48.742;2023-07-09T11:26:26;98360.28;;;31.90;48.65
65280;BME280;51878;55.748;48.742;2023-07-09T11:36:33;98310.59;;;31.91;47.25
65280;BME280;51878;55.748;48.742;2023-07-09T11:41:40;98341.88;;;32.33;46.10
65280;BME280;51878;55.748;48.742;2023-07-09T11:47:19;98357.28;;;32.40;45.80
65280;BME280;51878;55.748;48.742;2023-07-09T11:57:40;98346.59;;;33.57;43.09
65280;BME280;51878;55.748;48.742;2023-07-09T12:02:42;98247.94;;;33.26;42.05
65280;BME280;51878;55.748;48.742;2023-07-09T12:07:45;98373.44;;;33.70;41.32
65280;BME280;51878;55.748;48.742;2023-07-09T12:12:48;98361.47;;;32.46;43.20
65280;BME280;51878;55.748;48.742;2023-07-09T12:18:08;98330.19;;;32.03;44.17
65280;BME280;51878;55.748;48.742;2023-07-09T12:28:22;98308.66;;;31.26;45.76
65280;BME280;51878;55.748;48.742;2023-07-09T12:33:26;98338.16;;;31.24;45.45
65280;BME280;51878;55.748;48.742;2023-07-09T12:38:32;98345.53;;;31.16;46.42
65280;BME280;51878;55.748;48.742;2023-07-09T12:43:42;98330.44;;;30.84;47.08
65280;BME280;51878;55.748;48.742;2023-07-09T12:48:45;98285.50;;;30.43;47.60
65280;BME280;51878;55.748;48.742;2023-07-09T12:54:13;98247.91;;;30.07;48.69
65280;BME280;51878;55.748;48.742;2023-07-09T13:04:20;98305.13;;;30.22;49.70
65280;BME280;51878;55.748;48.742;2023-07-09T13:09:25;98294.91;;;29.93;50.17
65280;BME280;51878;55.748;48.742;2023-07-09T13:14:30;98279.97;;;29.68;51.73
65280;BME280;51878;55.748;48.742;2023-07-09T13:19:33;98235.97;;;29.23;53.16
65280;BME280;51878;55.748;48.742;2023-07-09T13:24:35;98248.22;;;29.10;53.85
65280;BME280;51878;55.748;48.742;2023-07-09T13:29:38;98190.75;;;28.58;55.01
65280;BME280;51878;55.748;48.742;2023-07-09T13:34:41;98273.94;;;28.85;55.94
65280;BME280;51878;55.748;48.742;2023-07-09T13:39:44;98187.63;;;28.21;56.34
65280;BME280;51878;55.748;48.742;2023-07-09T13:44:47;98251.97;;;28.46;57.82
65280;BME280;51878;55.748;48.742;2023-07-09T13:49:50;98148.59;;;27.74;58.03
65280;BME280;51878;55.748;48.742;2023-07-09T13:54:52;98219.13;;;28.13;59.49
65280;BME280;51878;55.748;48.742;2023-07-09T13:59:55;98173.28;;;27.84;60.65
65280;BME280;51878;55.748;48.742;2023-07-09T14:05:03;98183.78;;;27.96;62.01
65280;BME280;51878;55.748;48.742;2023-07-09T14:10:11;98140.38;;;27.86;60.96
65280;BME280;51878;55.748;48.742;2023-07-09T14:15:19;98172.22;;;28.15;60.98
65280;BME280;51878;55.748;48.742;2023-07-09T14:20:25;98110.00;;;27.93;59.88
65280;BME280;51878;55.748;48.742;2023-07-09T14:25:27;98150.00;;;28.36;60.08
65280;BME280;51878;55.748;48.742;2023-07-09T14:30:30;98087.44;;;27.86;60.99
65280;BME280;51878;55.748;48.742;2023-07-09T14:35:32;98113.63;;;27.94;61.14
65280;BME280;51878;55.748;48.742;2023-07-09T14:40:35;98167.13;;;28.17;61.30
65280;BME280;51878;55.748;48.742;2023-07-09T14:45:37;98133.31;;;27.80;61.13
65280;BME280;51878;55.748;48.742;2023-07-09T14:50:40;98117.13;;;27.65;62.23
65280;BME280;51878;55.748;48.742;2023-07-09T14:55:43;98080.53;;;27.36;62.01
65280;BME280;51878;55.748;48.742;2023-07-09T15:00:47;98083.00;;;27.29;62.13
65280;BME280;51878;55.748;48.742;2023-07-09T15:05:51;98106.09;;;27.30;62.99
65280;BME280;51878;55.748;48.742;2023-07-09T15:10:54;98053.56;;;27.02;63.72
65280;BME280;51878;55.748;48.742;2023-07-09T15:15:58;98096.78;;;27.26;64.18
65280;BME280;51878;55.748;48.742;2023-07-09T15:21:03;98091.84;;;27.14;64.81
65280;BME280;51878;55.748;48.742;2023-07-09T15:26:14;98092.34;;;27.07;65.08
65280;BME280;51878;55.748;48.742;2023-07-09T15:31:24;98058.00;;;26.86;65.66
65280;BME280;51878;55.748;48.742;2023-07-09T15:36:29;98078.47;;;26.81;67.22
65280;BME280;51878;55.748;48.742;2023-07-09T15:41:32;98059.50;;;26.66;66.96
65280;BME280;51878;55.748;48.742;2023-07-09T15:46:44;97941.31;;;25.76;69.25
65280;BME280;51878;55.748;48.742;2023-07-09T15:51:49;98053.03;;;26.39;71.63
65280;BME280;51878;55.748;48.742;2023-07-09T15:56:52;98005.56;;;25.92;74.32
65280;BME280;51878;55.748;48.742;2023-07-09T16:01:57;98046.94;;;26.02;76.26
65280;BME280;51878;55.748;48.742;2023-07-09T16:07:00;98041.81;;;25.87;79.19
65280;BME280;51878;55.748;48.742;2023-07-09T16:12:02;97968.97;;;25.41;81.24
65280;BME280;51878;55.748;48.742;2023-07-09T16:17:07;98008.88;;;25.54;84.17
65280;BME280;51878;55.748;48.742;2023-07-09T16:22:13;97992.47;;;25.35;85.98
65280;BME280;51878;55.748;48.742;2023-07-09T16:27:19;97993.75;;;25.29;87.51
65280;BME280;51878;55.748;48.742;2023-07-09T16:32:22;97990.41;;;25.18;88.01
65280;BME280;51878;55.748;48.742;2023-07-09T16:37:24;97935.50;;;24.75;89.38
65280;BME280;51878;55.748;48.742;2023-07-09T16:42:27;97963.16;;;24.89;90.63
65280;BME280;51878;55.748;48.742;2023-07-09T16:47:34;97993.25;;;25.04;92.97
65280;BME280;51878;55.748;48.742;2023-07-09T16:52:36;97968.03;;;24.83;94.37
65280;BME280;51878;55.748;48.742;2023-07-09T16:57:38;97948.66;;;24.61;95.60
65280;BME280;51878;55.748;48.742;2023-07-09T17:02:41;97928.09;;;24.39;98.32
65280;BME280;51878;55.748;48.742;2023-07-09T17:07:43;97989.66;;;24.72;98.99
65280;BME280;51878;55.748;48.742;2023-07-09T17:12:55;97955.03;;;24.47;99.75
65280;BME280;51878;55.748;48.742;2023-07-09T17:17:58;97983.22;;;24.63;100.00
65280;BME280;51878;55.748;48.742;2023-07-09T17:23:04;97965.81;;;24.49;100.00
65280;BME280;51878;55.748;48.742;2023-07-09T17:28:19;97967.69;;;24.40;100.00
65280;BME280;51878;55.748;48.742;2023-07-09T17:33:22;97920.59;;;24.17;100.00
65280;BME280;51878;55.748;48.742;2023-07-09T17:38:34;97966.66;;;24.36;100.00
65280;BME280;51878;55.748;48.742;2023-07-09T17:43:37;97966.50;;;24.32;100.00
65280;BME280;51878;55.748;48.742;2023-07-09T17:48:42;97950.38;;;24.34;100.00
65280;BME280;51878;55.748;48.742;2023-07-09T17:53:44;97917.03;;;24.03;100.00
65280;BME280;51878;55.748;48.742;2023-07-09T17:58:46;97906.00;;;23.89;100.00
65280;BME280;51878;55.748;48.742;2023-07-09T18:03:49;97890.13;;;23.81;100.00
65280;BME280;51878;55.748;48.742;2023-07-09T18:08:52;97943.06;;;24.16;100.00
65280;BME280;51878;55.748;48.742;2023-07-09T18:13:55;97911.34;;;23.85;100.00
65280;BME280;51878;55.748;48.742;2023-07-09T18:18:57;97981.41;;;24.22;100.00
65280;BME280;51878;55.748;48.742;2023-07-09T18:24:04;97911.97;;;23.82;100.00
65280;BME280;51878;55.748;48.742;2023-07-09T18:29:22;97983.06;;;24.23;100.00
65280;BME280;51878;55.748;48.742;2023-07-09T18:34:26;97989.13;;;24.11;100.00
65280;BME280;51878;55.748;48.742;2023-07-09T18:39:28;97975.81;;;24.00;100.00
65280;BME280;51878;55.748;48.742;2023-07-09T18:44:30;97912.28;;;23.67;100.00
65280;BME280;51878;55.748;48.742;2023-07-09T18:49:34;97879.41;;;23.79;100.00
65280;BME280;51878;55.748;48.742;2023-07-09T18:54:36;97883.66;;;23.85;100.00
65280;BME280;51878;55.748;48.742;2023-07-09T18:59:39;97884.50;;;23.72;100.00
65280;BME280;51878;55.748;48.742;2023-07-09T19:04:44;97846.94;;;23.43;100.00
65280;BME280;51878;55.748;48.742;2023-07-09T19:09:47;97890.66;;;23.69;100.00
65280;BME280;51878;55.748;48.742;2023-07-09T19:14:52;97871.84;;;23.57;100.00
65280;BME280;51878;55.748;48.742;2023-07-09T19:19:58;97791.91;;;23.05;100.00
65280;BME280;51878;55.748;48.742;2023-07-09T19:25:01;97878.94;;;23.72;100.00
65280;BME280;51878;55.748;48.742;2023-07-09T19:30:09;97847.63;;;23.63;100.00
65280;BME280;51878;55.748;48.742;2023-07-09T19:35:20;97782.34;;;23.39;100.00
65280;BME280;51878;55.748;48.742;2023-07-09T19:40:25;97822.78;;;23.71;100.00
65280;BME280;51878;55.748;48.742;2023-07-09T19:45:39;97800.25;;;23.42;100.00
65280;BME280;51878;55.748;48.742;2023-07-09T19:50:42;97739.38;;;22.92;100.00
65280;BME280;51878;55.748;48.742;2023-07-09T19:55:52;97830.84;;;23.59;100.00
65280;BME280;51878;55.748;48.742;2023-07-09T20:00:56;97747.56;;;23.10;100.00
65280;BME280;51878;55.748;48.742;2023-07-09T20:05:59;97791.97;;;23.64;100.00
65280;BME280;51878;55.748;48.742;2023-07-09T20:11:02;97754.59;;;23.53;100.00
65280;BME280;51878;55.748;48.742;2023-07-09T20:16:27;97766.94;;;23.69;100.00
65280;BME280;51878;55.748;48.742;2023-07-09T20:21:38;97745.38;;;23.58;100.00
65280;BME280;51878;55.748;48.742;2023-07-09T20:26:42;97752.69;;;23.76;100.00
65280;BME280;51878;55.748;48.742;2023-07-09T20:31:48;97730.28;;;23.64;100.00
65280;BME280;51878;55.748;48.742;2023-07-09T20:36:51;97702.72;;;23.59;100.00
65280;BME280;51878;55.748;48.742;2023-07-09T20:41:56;97730.63;;;23.71;100.00
65280;BME280;51878;55.748;48.742;2023-07-09T20:46:59;97692.97;;;23.39;100.00
65280;BME280;51878;55.748;48.742;2023-07-09T20:52:03;97684.09;;;23.28;100.00
65280;BME280;51878;55.748;48.742;2023-07-09T20:57:15;97716.69;;;23.54;100.00
65280;BME280;51878;55.748;48.742;2023-07-09T21:02:21;97731.59;;;23.66;100.00
65280;BME280;51878;55.748;48.742;2023-07-09T21:07:25;97694.69;;;23.48;100.00
65280;BME280;51878;55.748;48.742;2023-07-09T21:12:28;97735.25;;;23.76;100.00
65280;BME280;51878;55.748;48.742;2023-07-09T21:17:30;97785.25;;;24.02;100.00
65280;BME280;51878;55.748;48.742;2023-07-09T21:22:33;97692.03;;;23.43;92.06
65280;BME280;51878;55.748;48.742;2023-07-09T21:27:35;97756.31;;;24.08;85.55
65280;BME280;51878;55.748;48.742;2023-07-09T21:32:40;97783.06;;;24.44;83.97
65280;BME280;51878;55.748;48.742;2023-07-09T21:37:43;97732.69;;;24.42;83.29
65280;BME280;51878;55.748;48.742;2023-07-09T21:42:45;97755.25;;;24.58;81.29
65280;BME280;51878;55.748;48.742;2023-07-09T21:47:48;97727.72;;;24.61;80.67
65280;BME280;51878;55.748;48.742;2023-07-09T21:52:54;97736.41;;;24.77;79.94
65280;BME280;51878;55.748;48.742;2023-07-09T21:57:58;97710.78;;;24.71;79.92
65280;BME280;51878;55.748;48.742;2023-07-09T22:03:00;97686.50;;;24.77;80.09
65280;BME280;51878;55.748;48.742;2023-07-09T22:08:17;97679.00;;;24.78;81.31
65280;BME280;51878;55.748;48.742;2023-07-09T22:13:20;97606.84;;;24.43;82.94
65280;BME280;51878;55.748;48.742;2023-07-09T22:18:22;97668.09;;;24.81;83.92
65280;BME280;51878;55.748;48.742;2023-07-09T22:23:25;97631.84;;;24.60;85.62
65280;BME280;51878;55.748;48.742;2023-07-09T22:28:30;97569.00;;;24.21;86.64
65280;BME280;51878;55.748;48.742;2023-07-09T22:33:32;97621.72;;;24.56;87.30
65280;BME280;51878;55.748;48.742;2023-07-09T22:38:34;97597.19;;;24.31;87.96
65280;BME280;51878;55.748;48.742;2023-07-09T22:43:37;97528.53;;;23.93;88.17
65280;BME280;51878;55.748;48.742;2023-07-09T22:48:39;97627.44;;;24.59;88.29
65280;BME280;51878;55.748;48.742;2023-07-09T22:53:44;97561.34;;;24.18;88.85
65280;BME280;51878;55.748;48.742;2023-07-09T22:58:47;97561.66;;;24.16;89.57
65280;BME280;51878;55.748;48.742;2023-07-09T23:03:49;97525.44;;;23.86;90.27
65280;BME280;51878;55.748;48.742;2023-07-09T23:08:53;97611.41;;;24.30;90.87
65280;BME280;51878;55.748;48.742;2023-07-09T23:13:56;97518.31;;;23.63;91.52
65280;BME280;51878;55.748;48.742;2023-07-09T23:19:20;97614.16;;;24.21;91.33
65280;BME280;51878;55.748;48.742;2023-07-09T23:24:25;97555.09;;;23.95;91.30
65280;BME280;51878;55.748;48.742;2023-07-09T23:29:27;97545.66;;;23.96;91.01
65280;BME280;51878;55.748;48.742;2023-07-09T23:34:29;97526.06;;;23.83;89.77
65280;BME280;51878;55.748;48.742;2023-07-09T23:39:32;97578.44;;;24.20;89.70
65280;BME280;51878;55.748;48.742;2023-07-09T23:44:37;97551.03;;;24.01;89.09
65280;BME280;51878;55.748;48.742;2023-07-09T23:49:39;97564.91;;;24.18;89.06
65280;BME280;51878;55.748;48.742;2023-07-09T23:54:42;97521.72;;;24.00;88.97
65280;BME280;51878;55.748;48.742;2023-07-09T23:59:44;97551.38;;;23.99;90.00
